EST,Max TemperatureF,Mean TemperatureF,Min TemperatureF,Max Dew PointF,MeanDew PointF,Min DewpointF,Max Humidity, Mean Humidity, Min Humidity, Max Sea Level PressureIn, Mean Sea Level PressureIn, Min Sea Level PressureIn, Max VisibilityMiles, Mean VisibilityMiles, Min VisibilityMiles, Max Wind SpeedMPH, Mean Wind SpeedMPH, Max Gust SpeedMPH,PrecipitationIn, CloudCover, Events, WindDirDegrees
2014-2-1,47,37,26,25,20,13,78,54,29,30.30,30.19,30.01,10,9,5,16,4,20,0.00,2,,169
2014-2-2,53,43,33,39,31,22,70,58,46,30.14,30.03,29.97,10,9,7,8,3,9,0.00,7,Rain,38
2014-2-3,38,35,32,35,31,21,100,95,89,30.38,30.14,30.05,10,3,0,16,9,21,0.86,8,Fog-Rain-Snow,360
2014-2-4,30,25,20,25,20,17,91,80,68,30.51,30.35,30.14,10,7,2,8,5,10,0.00,5,Rain,27
2014-2-5,35,31,27,33,28,18,100,95,89,30.15,29.97,29.68,10,4,1,14,6,19,0.82,8,Rain,44
2014-2-6,32,27,22,16,13,11,68,58,47,30.39,30.33,30.24,10,10,10,24,9,29,0.00,2,,315
2014-2-7,34,29,24,16,13,9,63,53,43,30.38,30.34,30.30,10,10,9,14,7,19,0.00,2,,276
2014-2-8,28,25,21,14,11,6,62,52,42,30.39,30.30,30.19,10,10,7,12,4,13,T,4,,335
2014-2-9,29,25,21,26,21,15,92,78,63,30.23,30.07,29.96,10,3,0,12,3,15,0.02,7,Fog-Snow,158
2014-2-10,28,24,20,16,9,5,68,59,50,30.38,30.27,30.12,10,10,10,21,9,24,0.00,4,,322
2014-2-11,26,20,13,7,5,3,67,55,42,30.52,30.45,30.38,10,10,7,9,3,11,0.00,1,,1
2014-2-12,22,14,6,16,7,0,76,61,45,30.56,30.43,30.25,10,7,1,8,4,11,0.00,2,Snow,39
2014-2-13,34,26,18,31,23,15,92,87,82,30.21,29.69,29.36,10,4,0,22,15,29,0.14,8,Fog-Snow,347
2014-2-14,42,36,29,30,22,16,75,59,43,29.76,29.63,29.44,10,10,10,31,16,40,T,4,Rain,281
2014-2-15,36,33,30,32,25,6,100,80,59,30.00,29.75,29.64,10,5,0,30,12,36,0.02,6,Fog-Snow,348
2014-2-16,28,24,19,23,15,5,62,55,47,30.25,30.08,29.99,10,7,2,17,6,20,T,6,Snow,298
2014-2-17,28,21,13,22,8,2,73,55,36,30.50,30.35,30.16,10,9,0,21,6,25,0.00,2,Fog-Snow,74
2014-2-18,49,36,23,28,24,19,88,65,42,30.19,30.08,30.02,10,8,1,23,10,34,0.02,4,Snow,166
2014-2-19,53,40,27,40,30,23,96,78,59,30.17,29.89,29.73,10,5,1,18,5,21,0.20,3,Rain,312
2014-2-20,49,38,27,28,25,21,78,56,34,30.26,30.13,29.94,10,10,7,20,7,25,0.00,2,,133
2014-2-21,50,43,36,41,31,21,100,73,46,30.02,29.81,29.68,10,6,0,23,5,28,0.19,4,Fog-Rain,279
2014-2-22,57,47,36,23,19,15,50,35,20,30.10,30.05,30.01,10,10,10,18,10,25,0.00,0,,220
2014-2-23,53,42,31,37,28,20,66,52,38,30.05,30.00,29.94,10,10,10,10,4,14,0.00,3,Rain,334
2014-2-24,38,33,27,27,12,8,76,53,29,30.16,30.07,29.96,10,10,10,30,16,37,0.00,0,,290
2014-2-25,34,29,24,16,12,8,58,50,41,30.15,30.09,30.03,10,10,9,21,9,24,T,4,,281
2014-2-26,29,27,25,23,10,0,81,56,31,30.03,29.95,29.89,10,9,1,24,12,31,T,4,Snow,291
2014-2-27,32,24,16,10,3,-6,67,49,31,30.22,29.88,29.74,10,10,10,32,12,43,0.00,2,,270
2014-2-28,24,15,5,3,-5,-9,60,44,27,30.47,30.37,30.25,10,10,10,15,5,19,0.00,0,,30